Time,TemperatureF,DewpointF,PressureIn,WindDirection,WindDirectionDegrees,WindSpeedMPH,WindSpeedGustMPH,Humidity,HourlyPrecipIn,Conditions,Clouds,dailyrainin,SoftwareType,DateUTC
2013-02-25 19:09:00,37.5,30.3,29.38,NE,45,11.1,11.1,75,0.00,,---,0.00,VWS V14.00,2013-02-26 01:09:00,
2013-02-25 19:12:00,37.5,30.3,29.38,NE,45,5.1,10.5,75,0.00,,---,0.00,VWS V14.00,2013-02-26 01:12:00,
2013-02-25 19:17:00,37.4,30.2,29.38,NE,45,9.3,9.3,75,0.00,,---,0.00,VWS V14.00,2013-02-26 01:17:00,
2013-02-25 19:22:00,37.4,30.2,29.38,ENE,68,7.8,8.2,75,0.00,,---,0.00,VWS V14.00,2013-02-26 01:22:00,
2013-02-25 19:27:00,37.5,30.3,29.37,ENE,68,3.5,6.4,75,0.00,,---,0.00,VWS V14.00,2013-02-26 01:27:00,
2013-02-25 19:32:00,37.4,30.2,29.37,NE,45,8.2,8.2,75,0.00,,---,0.00,VWS V14.00,2013-02-26 01:32:00,
2013-02-25 19:37:00,37.2,30.0,29.38,NE,45,8.7,8.7,75,0.00,,---,0.00,VWS V14.00,2013-02-26 01:37:00,
2013-02-25 19:42:00,37.2,30.0,29.37,NE,45,13.6,14.0,75,0.00,,---,0.00,VWS V14.00,2013-02-26 01:42:00,
2013-02-25 19:47:00,37.2,30.0,29.37,NNE,22,10.0,10.0,75,0.00,,---,0.00,VWS V14.00,2013-02-26 01:47:00,
2013-02-25 19:52:00,37.0,29.8,29.37,NNE,22,9.3,16.5,75,0.00,,---,0.00,VWS V14.00,2013-02-26 01:52:00,
2013-02-25 19:57:00,37.0,29.8,29.37,NE,45,12.5,12.5,75,0.00,,---,0.00,VWS V14.00,2013-02-26 01:57:00,
2013-02-25 20:02:00,37.0,29.8,29.37,NE,45,9.6,9.6,75,0.00,,---,0.00,VWS V14.00,2013-02-26 02:02:00,
2013-02-25 20:07:00,37.0,29.8,29.37,ENE,68,8.7,8.7,75,0.00,,---,0.00,VWS V14.00,2013-02-26 02:07:00,
2013-02-25 20:12:00,36.8,30.0,29.37,NE,45,9.3,9.3,76,0.00,,---,0.00,VWS V14.00,2013-02-26 02:12:00,
2013-02-25 20:17:00,36.8,30.0,29.38,NE,45,9.8,11.1,76,0.00,,---,0.00,VWS V14.00,2013-02-26 02:17:00,
2013-02-25 20:22:00,36.8,30.0,29.39,NE,45,9.1,9.1,76,0.00,,---,0.00,VWS V14.00,2013-02-26 02:22:00,
2013-02-25 20:28:00,36.8,30.0,29.40,NE,45,11.4,11.4,76,0.00,,---,0.00,VWS V14.00,2013-02-26 02:28:00,
2013-02-25 20:33:00,36.8,29.6,29.40,NE,45,8.0,8.5,75,0.00,,---,0.00,VWS V14.00,2013-02-26 02:33:00,
2013-02-25 20:38:00,36.6,29.4,29.40,NE,45,6.7,8.7,75,0.00,,---,0.00,VWS V14.00,2013-02-26 02:38:00,
2013-02-25 20:43:00,36.6,29.4,29.40,NNE,22,8.5,8.7,75,0.00,,---,0.00,VWS V14.00,2013-02-26 02:43:00,
2013-02-25 20:48:00,36.6,29.4,29.40,NNE,22,7.8,9.1,75,0.00,,---,0.00,VWS V14.00,2013-02-26 02:48:00,
2013-02-25 20:53:00,36.6,29.4,29.40,NNE,22,10.7,10.7,75,0.00,,---,0.00,VWS V14.00,2013-02-26 02:53:00,
2013-02-25 20:58:00,36.5,29.3,29.40,NE,45,6.9,7.6,75,0.00,,---,0.00,VWS V14.00,2013-02-26 02:58:00,
2013-02-25 21:03:00,36.5,29.3,29.40,NE,45,10.2,10.2,75,0.00,,---,0.00,VWS V14.00,2013-02-26 03:03:00,
2013-02-25 21:08:00,36.5,29.3,29.40,NE,45,3.5,8.0,75,0.00,,---,0.00,VWS V14.00,2013-02-26 03:08:00,
2013-02-25 21:13:00,36.3,29.1,29.40,NE,45,8.0,8.0,75,0.00,,---,0.00,VWS V14.00,2013-02-26 03:13:00,
2013-02-25 21:18:00,36.3,29.1,29.40,NE,45,5.3,5.3,75,0.00,,---,0.00,VWS V14.00,2013-02-26 03:18:00,
2013-02-25 21:23:00,36.3,29.1,29.39,NE,45,5.8,8.0,75,0.00,,---,0.00,VWS V14.00,2013-02-26 03:23:00,
2013-02-25 21:28:00,36.3,29.1,29.38,NE,45,9.8,9.8,75,0.00,,---,0.00,VWS V14.00,2013-02-26 03:28:00,
2013-02-25 21:33:00,36.3,29.1,29.38,NNE,22,10.7,10.9,75,0.00,,---,0.00,VWS V14.00,2013-02-26 03:33:00,
2013-02-25 21:38:00,36.5,29.0,29.37,NE,45,10.5,10.5,74,0.00,,---,0.00,VWS V14.00,2013-02-26 03:38:00,
2013-02-25 21:43:00,36.5,29.0,29.36,NE,45,7.3,8.9,74,0.00,,---,0.00,VWS V14.00,2013-02-26 03:43:00,
2013-02-25 21:48:00,36.5,29.0,29.35,NE,45,7.3,7.3,74,0.00,,---,0.00,VWS V14.00,2013-02-26 03:48:00,
2013-02-25 21:53:00,36.5,29.0,29.35,ENE,68,10.0,10.0,74,0.00,,---,0.00,VWS V14.00,2013-02-26 03:53:00,
2013-02-25 21:58:00,36.6,29.1,29.35,ENE,68,5.3,10.0,74,0.00,,---,0.00,VWS V14.00,2013-02-26 03:58:00,
2013-02-25 22:03:00,36.6,29.1,29.35,NE,45,8.9,8.9,74,0.00,,---,0.00,VWS V14.00,2013-02-26 04:03:00,
2013-02-25 22:08:00,36.5,29.0,29.34,NE,45,9.3,10.5,74,0.00,,---,0.00,VWS V14.00,2013-02-26 04:08:00,
2013-02-25 22:13:00,36.5,29.0,29.34,NE,45,5.5,9.1,74,0.00,,---,0.00,VWS V14.00,2013-02-26 04:13:00,
2013-02-25 22:18:00,36.3,29.1,29.35,NE,45,4.4,7.8,75,0.00,,---,0.00,VWS V14.00,2013-02-26 04:18:00,
2013-02-25 22:23:00,36.3,29.1,29.33,NE,45,5.8,5.8,75,0.00,,---,0.00,VWS V14.00,2013-02-26 04:23:00,
2013-02-25 22:28:00,36.1,29.0,29.32,NE,45,8.0,9.1,75,0.00,,---,0.00,VWS V14.00,2013-02-26 04:28:00,
2013-02-25 22:34:00,36.1,29.0,29.31,ENE,68,8.9,8.9,75,0.00,,---,0.00,VWS V14.00,2013-02-26 04:34:00,
2013-02-25 22:39:00,36.1,29.0,29.30,NE,45,10.5,10.5,75,0.00,,---,0.00,VWS V14.00,2013-02-26 04:39:00,
2013-02-25 22:44:00,36.1,29.0,29.30,NE,45,7.8,7.8,75,0.00,,---,0.00,VWS V14.00,2013-02-26 04:44:00,
2013-02-25 22:50:00,36.3,29.1,29.30,NE,45,7.6,9.3,75,0.00,,---,0.00,VWS V14.00,2013-02-26 04:50:00,
2013-02-25 22:55:00,36.3,28.8,29.29,NE,45,6.9,9.1,74,0.00,,---,0.00,VWS V14.00,2013-02-26 04:55:00,
2013-02-25 23:00:00,36.3,28.8,29.30,ENE,68,6.7,8.0,74,0.00,,---,0.00,VWS V14.00,2013-02-26 05:00:00,
2013-02-25 23:01:00,36.3,28.8,29.30,NE,45,9.3,9.3,74,0.00,,---,0.00,VWS V14.00,2013-02-26 05:01:00,
2013-02-25 23:03:00,36.3,28.8,29.29,ENE,68,3.3,8.2,74,0.00,,---,0.00,VWS V14.00,2013-02-26 05:03:00,
2013-02-25 23:04:00,36.1,29.0,29.29,ENE,68,6.7,6.7,75,0.00,,---,0.00,VWS V14.00,2013-02-26 05:04:00,
2013-02-25 23:09:00,36.3,28.8,29.28,NE,45,9.8,9.8,74,0.00,,---,0.00,VWS V14.00,2013-02-26 05:09:00,
2013-02-25 23:14:00,36.3,28.8,29.28,NNE,22,10.5,10.5,74,0.00,,---,0.00,VWS V14.00,2013-02-26 05:14:00,
2013-02-25 23:19:00,36.1,29.0,29.28,NE,45,11.8,11.8,75,0.00,,---,0.00,VWS V14.00,2013-02-26 05:19:00,
2013-02-25 23:24:00,35.9,28.8,29.28,NE,45,7.8,9.3,75,0.00,,---,0.00,VWS V14.00,2013-02-26 05:24:00,
2013-02-25 23:29:00,35.9,29.1,29.28,NE,45,10.0,10.0,76,0.00,,---,0.00,VWS V14.00,2013-02-26 05:29:00,
2013-02-25 23:34:00,35.7,28.9,29.29,ENE,68,6.4,6.4,76,0.00,,---,0.00,VWS V14.00,2013-02-26 05:34:00,
2013-02-25 23:39:00,35.7,28.9,29.29,NE,45,7.3,7.3,76,0.00,,---,0.00,VWS V14.00,2013-02-26 05:39:00,
2013-02-25 23:44:00,35.7,29.2,29.29,East,90,8.7,10.9,77,0.00,,---,0.00,VWS V14.00,2013-02-26 05:44:00,
2013-02-25 23:49:00,35.4,28.9,29.29,NE,45,8.0,8.7,77,0.00,,---,0.00,VWS V14.00,2013-02-26 05:49:00,
2013-02-25 23:54:00,35.4,28.9,29.30,ENE,68,8.2,8.2,77,0.00,,---,0.00,VWS V14.00,2013-02-26 05:54:00,
2013-02-25 23:59:00,35.4,28.9,29.29,NE,45,9.1,9.1,77,0.00,,---,0.00,VWS V14.00,2013-02-26 05:59:00,